createdAt,value
2018-09-29T00:02:05.727Z,90.30
2018-09-29T00:04:34.228Z,90.40
2018-09-29T00:07:03.355Z,90.50
2018-09-29T00:09:31.846Z,90.50
2018-09-29T00:12:00.419Z,90.40
2018-09-29T00:14:28.903Z,90.50
2018-09-29T00:16:57.453Z,90.50
2018-09-29T00:19:25.937Z,90.60
2018-09-29T00:21:54.485Z,90.30
2018-09-29T00:24:22.999Z,90.30
2018-09-29T00:26:51.575Z,90.50
2018-09-29T00:29:20.079Z,90.50
2018-09-29T00:31:49.280Z,90.50
2018-09-29T00:34:17.770Z,90.40
2018-09-29T00:36:46.290Z,90.40
2018-09-29T00:39:14.780Z,90.20
2018-09-29T00:41:43.328Z,90.10
2018-09-29T00:44:11.818Z,90.30
2018-09-29T00:46:40.323Z,90.00
2018-09-29T00:49:08.897Z,90.00
2018-09-29T00:51:37.430Z,89.70
2018-09-29T00:54:05.957Z,89.80
2018-09-29T00:56:34.490Z,89.80
2018-09-29T00:59:03.021Z,89.50
2018-09-29T01:01:31.518Z,89.80
2018-09-29T01:04:03.507Z,88.90
2018-09-29T01:06:31.994Z,88.80
2018-09-29T01:09:00.506Z,88.70
2018-09-29T01:11:29.004Z,88.40
2018-09-29T01:13:57.569Z,88.40
2018-09-29T01:16:26.066Z,88.30
2018-09-29T01:18:54.622Z,88.10
2018-09-29T01:21:23.127Z,89.60
2018-09-29T01:23:51.697Z,90.40
2018-09-29T01:26:20.243Z,90.60
2018-09-29T01:28:48.802Z,90.70
2018-09-29T01:31:17.339Z,90.40
2018-09-29T01:33:46.706Z,90.40
2018-09-29T01:36:15.599Z,90.30
2018-09-29T01:38:44.455Z,90.30
2018-09-29T01:41:12.955Z,90.30
2018-09-29T01:43:41.487Z,90.40
2018-09-29T01:46:10.055Z,90.40
2018-09-29T01:48:38.549Z,90.40
2018-09-29T01:51:07.107Z,90.40
2018-09-29T01:53:35.643Z,90.40
2018-09-29T01:56:07.936Z,90.50
2018-09-29T01:58:36.476Z,90.50
2018-09-29T02:01:05.034Z,90.20
2018-09-29T02:03:33.543Z,89.70
2018-09-29T02:06:02.472Z,89.00
2018-09-29T02:08:30.955Z,89.50
2018-09-29T02:10:59.538Z,89.50
2018-09-29T02:13:28.055Z,88.90
2018-09-29T02:15:56.639Z,88.80
2018-09-29T02:18:25.152Z,88.70
2018-09-29T02:20:53.710Z,87.70
2018-09-29T02:23:22.239Z,87.90
2018-09-29T02:25:50.838Z,87.10
2018-09-29T02:28:19.375Z,87.40
2018-09-29T02:30:47.950Z,87.50
2018-09-29T02:33:16.474Z,88.00
2018-09-29T02:35:45.000Z,88.70
2018-09-29T02:38:13.527Z,86.50
2018-09-29T02:40:42.130Z,85.80
2018-09-29T02:43:10.643Z,86.30
2018-09-29T02:45:39.132Z,85.50
2018-09-29T02:48:07.662Z,84.60
2018-09-29T02:50:36.224Z,83.90
2018-09-29T02:53:04.812Z,84.00
2018-09-29T02:55:33.338Z,83.90
2018-09-29T02:58:03.351Z,84.20
2018-09-29T03:00:31.846Z,84.90
2018-09-29T03:03:00.417Z,85.60
2018-09-29T03:05:28.939Z,85.20
2018-09-29T03:07:57.511Z,85.80
2018-09-29T03:10:26.042Z,85.70
2018-09-29T03:12:54.589Z,85.50
2018-09-29T03:15:23.138Z,84.00
2018-09-29T03:17:51.767Z,84.00
2018-09-29T03:20:20.410Z,84.40
2018-09-29T03:22:48.969Z,84.00
2018-09-29T03:25:17.478Z,84.10
2018-09-29T03:27:46.003Z,84.50
2018-09-29T03:30:14.557Z,84.70
2018-09-29T03:32:43.095Z,84.70
2018-09-29T03:35:11.607Z,84.30
2018-09-29T03:37:40.227Z,83.70
2018-09-29T03:40:08.818Z,83.90
2018-09-29T03:42:37.323Z,84.40
2018-09-29T03:45:06.081Z,84.40
2018-09-29T03:47:34.589Z,84.70
2018-09-29T03:50:03.174Z,84.60
2018-09-29T03:52:31.686Z,84.90
2018-09-29T03:55:00.289Z,85.50
2018-09-29T03:57:28.878Z,85.50
2018-09-29T03:59:57.467Z,85.70
2018-09-29T04:02:25.979Z,86.00
2018-09-29T04:04:54.607Z,86.30
2018-09-29T04:07:23.102Z,86.60
2018-09-29T04:09:51.672Z,86.80
2018-09-29T04:12:20.199Z,86.80
2018-09-29T04:14:48.776Z,87.10
2018-09-29T04:17:17.318Z,87.40
2018-09-29T04:19:45.904Z,87.80
2018-09-29T04:22:14.416Z,87.70
2018-09-29T04:24:42.953Z,88.20
2018-09-29T04:27:11.484Z,88.10
2018-09-29T04:29:40.061Z,88.60
2018-09-29T04:32:08.641Z,88.70
2018-09-29T04:34:37.162Z,89.20
2018-09-29T04:37:05.762Z,89.90
2018-09-29T04:39:34.338Z,90.00
2018-09-29T04:42:02.978Z,90.10
2018-09-29T04:44:31.471Z,90.30
2018-09-29T04:47:00.011Z,90.40
2018-09-29T04:49:28.551Z,90.20
2018-09-29T04:51:57.113Z,90.40
2018-09-29T04:54:25.600Z,90.20
2018-09-29T04:56:54.141Z,90.30
2018-09-29T04:59:22.637Z,90.30
2018-09-29T05:01:51.179Z,90.30
2018-09-29T05:04:19.720Z,90.30
2018-09-29T05:06:48.262Z,90.20
2018-09-29T05:09:16.762Z,90.10
2018-09-29T05:11:45.320Z,90.20
2018-09-29T05:14:13.974Z,90.30
2018-09-29T05:16:42.514Z,90.40
2018-09-29T05:19:11.033Z,90.10
2018-09-29T05:21:39.582Z,90.20
2018-09-29T05:24:08.134Z,90.00
2018-09-29T05:26:36.905Z,88.20
2018-09-29T05:29:05.493Z,87.20
2018-09-29T05:31:34.018Z,86.80
2018-09-29T05:34:02.577Z,86.30
2018-09-29T05:36:31.111Z,85.70
2018-09-29T05:38:59.666Z,86.10
2018-09-29T05:41:28.200Z,86.10
2018-09-29T05:43:56.761Z,86.10
2018-09-29T05:46:25.271Z,85.80
2018-09-29T05:48:53.814Z,86.30
2018-09-29T05:51:22.345Z,85.30
2018-09-29T05:53:50.967Z,85.60
2018-09-29T05:56:19.483Z,84.80
2018-09-29T05:58:48.055Z,85.40
2018-09-29T06:01:16.611Z,84.40
2018-09-29T06:03:45.151Z,84.00
2018-09-29T06:06:13.683Z,83.60
2018-09-29T06:08:42.249Z,83.70
2018-09-29T06:11:10.808Z,84.10
2018-09-29T06:13:39.347Z,83.20
2018-09-29T06:16:07.942Z,82.60
2018-09-29T06:18:36.715Z,82.90
2018-09-29T06:21:05.335Z,82.20
2018-09-29T06:23:33.775Z,81.50
2018-09-29T06:26:03.530Z,81.70
2018-09-29T06:28:32.011Z,82.40
2018-09-29T06:31:00.536Z,82.40
2018-09-29T06:33:29.034Z,82.50
2018-09-29T06:35:57.639Z,81.60
2018-09-29T06:38:26.159Z,81.30
2018-09-29T06:40:54.707Z,80.30
2018-09-29T06:43:23.210Z,79.60
2018-09-29T06:45:52.279Z,80.90
2018-09-29T06:48:21.131Z,81.10
2018-09-29T06:50:49.655Z,80.30
2018-09-29T06:53:18.160Z,80.30
2018-09-29T06:55:47.227Z,77.30
2018-09-29T06:58:15.756Z,76.40
2018-09-29T07:00:44.338Z,76.90
2018-09-29T07:03:12.951Z,76.70
2018-09-29T07:05:41.499Z,76.20
2018-09-29T07:08:10.048Z,76.30
2018-09-29T07:10:38.607Z,76.20
2018-09-29T07:13:07.172Z,76.70
2018-09-29T07:15:35.701Z,74.90
2018-09-29T07:18:04.501Z,75.40
2018-09-29T07:20:33.060Z,74.80
2018-09-29T07:23:03.775Z,74.00
2018-09-29T07:25:32.352Z,75.80
2018-09-29T07:28:00.849Z,76.80
2018-09-29T07:30:29.418Z,73.80
2018-09-29T07:32:58.020Z,73.20
2018-09-29T07:35:26.630Z,73.30
2018-09-29T07:37:55.243Z,72.20
2018-09-29T07:40:23.771Z,73.10
2018-09-29T07:42:52.323Z,74.40
2018-09-29T07:45:20.854Z,73.10
2018-09-29T07:47:49.409Z,73.70
2018-09-29T07:50:17.990Z,73.40
2018-09-29T07:52:46.550Z,71.40
2018-09-29T07:55:15.151Z,71.50
2018-09-29T07:57:43.682Z,71.60
2018-09-29T08:00:12.248Z,70.90
2018-09-29T08:02:40.886Z,71.90
2018-09-29T08:05:09.394Z,71.70
2018-09-29T08:07:37.992Z,68.10
2018-09-29T08:10:06.724Z,67.40
2018-09-29T08:12:35.316Z,67.60
2018-09-29T08:15:03.885Z,67.00
2018-09-29T08:17:32.435Z,66.80
2018-09-29T08:20:02.835Z,66.60
2018-09-29T08:22:31.355Z,63.90
2018-09-29T08:24:59.884Z,62.80
2018-09-29T08:27:28.491Z,64.00
2018-09-29T08:29:57.036Z,61.10
2018-09-29T08:32:25.592Z,62.90
2018-09-29T08:34:54.131Z,61.80
2018-09-29T08:37:22.679Z,62.20
2018-09-29T08:39:51.231Z,60.10
2018-09-29T08:42:19.747Z,61.10
2018-09-29T08:44:48.343Z,60.80
2018-09-29T08:47:16.866Z,59.90
2018-09-29T08:49:45.405Z,59.90
2018-09-29T08:52:13.903Z,59.40
2018-09-29T08:54:42.493Z,59.50
2018-09-29T08:57:11.115Z,58.80
2018-09-29T08:59:39.677Z,57.60
2018-09-29T09:02:08.187Z,58.10
2018-09-29T09:04:36.849Z,58.00
2018-09-29T09:07:06.059Z,54.70
2018-09-29T09:09:34.668Z,55.80
2018-09-29T09:12:03.155Z,56.40
2018-09-29T09:14:31.679Z,55.00
2018-09-29T09:17:00.251Z,54.80
2018-09-29T09:19:28.791Z,54.20
2018-09-29T09:21:57.331Z,55.60
2018-09-29T09:24:25.847Z,55.10
2018-09-29T09:26:54.423Z,54.50
2018-09-29T09:29:23.010Z,52.40
2018-09-29T09:31:51.602Z,52.70
2018-09-29T09:34:20.099Z,51.70
2018-09-29T09:36:48.696Z,52.40
2018-09-29T09:39:17.244Z,52.60
2018-09-29T09:41:45.807Z,52.70
2018-09-29T09:44:14.370Z,52.00
2018-09-29T09:46:42.987Z,52.40
2018-09-29T09:49:11.555Z,53.00
2018-09-29T09:51:40.106Z,52.10
2018-09-29T09:54:08.647Z,53.00
2018-09-29T09:56:37.243Z,53.20
2018-09-29T09:59:05.836Z,53.90
2018-09-29T10:01:39.809Z,53.60
2018-09-29T10:04:08.455Z,52.70
2018-09-29T10:06:37.173Z,52.80
2018-09-29T10:09:08.455Z,52.40
2018-09-29T10:11:37.051Z,51.90
2018-09-29T10:14:05.553Z,51.80
2018-09-29T10:16:34.469Z,51.20
2018-09-29T10:19:03.867Z,47.60
2018-09-29T10:21:32.491Z,48.00
2018-09-29T10:24:02.999Z,48.50
2018-09-29T10:26:31.565Z,47.70
2018-09-29T10:29:00.111Z,45.60
2018-09-29T10:31:28.687Z,45.70
2018-09-29T10:33:57.204Z,47.50
2018-09-29T10:36:26.208Z,48.90
2018-09-29T10:38:54.722Z,48.20
2018-09-29T10:41:23.267Z,48.20
2018-09-29T10:43:52.115Z,48.00
2018-09-29T10:46:20.670Z,47.80
2018-09-29T10:48:49.206Z,47.90
2018-09-29T10:51:17.769Z,47.50
2018-09-29T10:53:46.334Z,49.20
2018-09-29T10:56:14.906Z,49.20
2018-09-29T10:58:43.407Z,48.80
2018-09-29T11:01:11.887Z,48.80
2018-09-29T11:03:40.356Z,47.70
2018-09-29T11:06:08.909Z,46.80
2018-09-29T11:08:37.398Z,45.70
2018-09-29T11:11:05.953Z,47.00
2018-09-29T11:13:34.475Z,47.70
2018-09-29T11:16:03.086Z,45.40
2018-09-29T11:18:31.649Z,45.50
2018-09-29T11:21:00.230Z,45.60
2018-09-29T11:23:28.711Z,46.10
2018-09-29T11:25:57.241Z,47.40
2018-09-29T11:28:25.795Z,48.20
2018-09-29T11:30:54.318Z,46.60
2018-09-29T11:33:22.867Z,47.00
2018-09-29T11:35:51.380Z,47.40
2018-09-29T11:38:19.910Z,47.30
2018-09-29T11:40:48.503Z,46.10
2018-09-29T11:43:17.027Z,45.60
2018-09-29T11:45:45.603Z,44.30
2018-09-29T11:48:14.108Z,43.90
2018-09-29T11:50:42.671Z,43.40
2018-09-29T11:53:11.230Z,43.20
2018-09-29T11:55:39.840Z,44.50
2018-09-29T11:58:08.378Z,44.40
2018-09-29T12:00:36.942Z,43.80
2018-09-29T12:03:05.512Z,44.10
2018-09-29T12:05:34.016Z,44.60
2018-09-29T12:08:02.612Z,44.50
2018-09-29T12:10:31.130Z,43.60
2018-09-29T12:12:59.678Z,45.50
2018-09-29T12:15:28.219Z,44.80
2018-09-29T12:17:56.755Z,42.80
2018-09-29T12:20:25.281Z,42.60
2018-09-29T12:22:53.844Z,42.40
2018-09-29T12:25:22.529Z,41.90
2018-09-29T12:27:51.097Z,42.50
2018-09-29T12:30:19.628Z,45.20
2018-09-29T12:32:48.198Z,45.90
2018-09-29T12:35:16.731Z,44.80
2018-09-29T12:37:45.342Z,43.60
2018-09-29T12:40:13.802Z,43.60
2018-09-29T12:42:42.370Z,42.70
2018-09-29T12:45:10.923Z,41.40
2018-09-29T12:47:39.514Z,42.10
2018-09-29T12:50:08.088Z,43.00
2018-09-29T12:52:36.874Z,41.90
2018-09-29T12:55:05.410Z,41.60
2018-09-29T12:57:34.000Z,40.50
2018-09-29T13:00:05.790Z,41.90
2018-09-29T13:02:34.289Z,43.60
2018-09-29T13:05:03.623Z,42.20
2018-09-29T13:07:32.129Z,41.70
2018-09-29T13:10:00.740Z,40.40
2018-09-29T13:12:29.287Z,40.30
2018-09-29T13:14:57.790Z,42.00
2018-09-29T13:17:27.250Z,41.40
2018-09-29T13:19:55.794Z,41.30
2018-09-29T13:22:24.379Z,40.30
2018-09-29T13:24:52.922Z,40.00
2018-09-29T13:27:21.477Z,41.00
2018-09-29T13:29:50.053Z,41.10
2018-09-29T13:32:18.639Z,40.50
2018-09-29T13:34:47.254Z,40.70
2018-09-29T13:37:15.767Z,40.60
2018-09-29T13:39:44.343Z,38.90
2018-09-29T13:42:12.894Z,40.10
2018-09-29T13:44:41.456Z,40.10
2018-09-29T13:47:09.982Z,40.40
2018-09-29T13:49:38.580Z,41.40
2018-09-29T13:52:07.207Z,41.60
2018-09-29T13:54:35.734Z,41.60
2018-09-29T13:57:05.202Z,41.50
2018-09-29T13:59:33.724Z,41.40
2018-09-29T14:02:03.059Z,42.70
2018-09-29T14:04:31.562Z,42.90
2018-09-29T14:07:00.103Z,42.70
2018-09-29T14:09:28.620Z,42.30
2018-09-29T14:11:57.167Z,41.80
2018-09-29T14:14:25.672Z,42.10
2018-09-29T14:16:54.216Z,42.00
2018-09-29T14:19:22.722Z,42.60
2018-09-29T14:21:51.273Z,42.80
2018-09-29T14:24:19.784Z,41.20
2018-09-29T14:26:48.338Z,42.10
2018-09-29T14:29:17.124Z,41.80
2018-09-29T14:31:45.643Z,42.50
2018-09-29T14:34:14.186Z,42.00
2018-09-29T14:36:42.742Z,41.10
2018-09-29T14:39:11.251Z,41.70
2018-09-29T14:41:40.254Z,42.30
2018-09-29T14:44:09.266Z,42.60
2018-09-29T14:46:37.943Z,43.20
2018-09-29T14:49:06.643Z,41.80
2018-09-29T14:51:35.186Z,43.20
2018-09-29T14:54:03.788Z,43.10
2018-09-29T14:56:32.351Z,43.30
2018-09-29T14:59:02.319Z,44.00
2018-09-29T15:01:30.858Z,43.60
2018-09-29T15:03:59.465Z,43.80
2018-09-29T15:06:27.967Z,44.60
2018-09-29T15:08:56.543Z,44.00
2018-09-29T15:11:25.089Z,43.80
2018-09-29T15:13:53.698Z,42.40
2018-09-29T15:16:22.206Z,44.70
2018-09-29T15:18:50.762Z,46.30
2018-09-29T15:21:19.373Z,46.40
2018-09-29T15:23:47.920Z,46.90
2018-09-29T15:26:16.418Z,47.20
2018-09-29T15:28:44.978Z,46.10
2018-09-29T15:31:13.488Z,46.30
2018-09-29T15:33:42.013Z,46.60
2018-09-29T15:36:10.486Z,47.20
2018-09-29T15:38:39.043Z,47.90
2018-09-29T15:41:07.558Z,47.30
2018-09-29T15:43:36.110Z,47.20
2018-09-29T15:46:04.682Z,47.60
2018-09-29T15:48:33.252Z,48.10
2018-09-29T15:51:03.586Z,48.70
2018-09-29T15:53:32.229Z,48.90
2018-09-29T15:56:00.820Z,49.20
2018-09-29T15:58:29.349Z,48.20
2018-09-29T16:00:57.926Z,47.90
2018-09-29T16:03:26.422Z,47.40
2018-09-29T16:05:54.970Z,47.50
2018-09-29T16:08:23.470Z,47.70
2018-09-29T16:10:52.028Z,47.90
2018-09-29T16:13:20.510Z,47.90
2018-09-29T16:15:49.078Z,48.30
2018-09-29T16:18:17.602Z,48.70
2018-09-29T16:20:46.163Z,49.10
2018-09-29T16:23:14.671Z,50.20
2018-09-29T16:25:43.234Z,51.30
2018-09-29T16:28:11.751Z,50.30
2018-09-29T16:30:40.335Z,50.80
2018-09-29T16:33:08.872Z,52.10
2018-09-29T16:35:37.430Z,53.50
2018-09-29T16:38:06.008Z,53.60
2018-09-29T16:40:34.510Z,54.10
2018-09-29T16:43:05.360Z,55.70
2018-09-29T16:45:33.855Z,56.20
2018-09-29T16:48:03.672Z,57.80
2018-09-29T16:50:32.242Z,58.20
2018-09-29T16:53:00.864Z,58.60
2018-09-29T16:55:29.407Z,59.30
2018-09-29T16:57:58.004Z,59.50
2018-09-29T17:00:26.561Z,59.70
2018-09-29T17:02:55.146Z,62.20
2018-09-29T17:05:23.771Z,63.50
2018-09-29T17:07:52.389Z,64.60
2018-09-29T17:10:20.935Z,65.30
2018-09-29T17:12:49.487Z,67.40
2018-09-29T17:15:18.004Z,67.00
2018-09-29T17:17:46.613Z,68.40
2018-09-29T17:20:15.147Z,70.30
2018-09-29T17:22:44.367Z,71.70
2018-09-29T17:25:12.912Z,72.30
2018-09-29T17:27:41.725Z,73.00
2018-09-29T17:30:10.300Z,73.90
2018-09-29T17:32:38.887Z,76.20
2018-09-29T17:35:07.518Z,77.20
2018-09-29T17:37:36.046Z,78.20
2018-09-29T17:40:04.759Z,79.00
2018-09-29T17:42:33.331Z,79.60
2018-09-29T17:45:05.444Z,80.30
2018-09-29T17:47:33.970Z,81.40
2018-09-29T17:50:03.967Z,81.40
2018-09-29T17:52:32.526Z,81.90
2018-09-29T17:55:03.163Z,83.20
2018-09-29T17:57:31.808Z,85.80
2018-09-29T18:00:00.693Z,84.80
2018-09-29T18:02:29.239Z,84.20
2018-09-29T18:04:57.809Z,85.60
2018-09-29T18:07:26.346Z,87.30
2018-09-29T18:09:55.023Z,87.70
2018-09-29T18:12:23.578Z,88.40
2018-09-29T18:14:52.151Z,88.70
2018-09-29T18:17:20.696Z,88.40
2018-09-29T18:19:49.264Z,89.00
2018-09-29T18:22:17.778Z,89.50
2018-09-29T18:24:46.496Z,90.00
2018-09-29T18:27:15.028Z,90.30
2018-09-29T18:29:43.537Z,90.70
2018-09-29T18:32:12.101Z,90.90
2018-09-29T18:34:40.660Z,90.90
2018-09-29T18:37:09.283Z,91.00
2018-09-29T18:39:37.795Z,90.90
2018-09-29T18:42:06.466Z,91.00
2018-09-29T18:44:34.992Z,91.00
2018-09-29T18:47:03.659Z,91.40
2018-09-29T18:49:32.172Z,91.70
2018-09-29T18:52:00.751Z,92.00
2018-09-29T18:54:29.264Z,92.30
2018-09-29T18:56:57.855Z,92.20
2018-09-29T18:59:26.382Z,92.30
2018-09-29T19:01:54.947Z,92.60
2018-09-29T19:04:23.442Z,92.60
2018-09-29T19:06:51.980Z,92.90
2018-09-29T19:09:20.545Z,93.00
2018-09-29T19:11:49.166Z,93.30
2018-09-29T19:14:17.610Z,93.40
2018-09-29T19:16:46.178Z,93.10
2018-09-29T19:19:14.674Z,93.20
2018-09-29T19:21:43.257Z,93.20
2018-09-29T19:24:11.755Z,93.30
2018-09-29T19:26:40.269Z,93.40
2018-09-29T19:29:08.821Z,93.60
2018-09-29T19:31:37.306Z,93.90
2018-09-29T19:34:05.867Z,93.90
2018-09-29T19:36:34.401Z,93.90
2018-09-29T19:39:03.774Z,94.00
2018-09-29T19:41:32.249Z,93.90
2018-09-29T19:44:00.784Z,94.00
2018-09-29T19:46:29.372Z,94.20
2018-09-29T19:48:57.898Z,94.20
2018-09-29T19:51:26.448Z,94.40
2018-09-29T19:53:54.963Z,94.60
2018-09-29T19:56:23.539Z,94.80
2018-09-29T19:58:52.075Z,94.70
2018-09-29T20:01:20.558Z,94.60
2018-09-29T20:03:49.177Z,94.40
2018-09-29T20:06:17.609Z,94.40
2018-09-29T20:08:46.138Z,94.40
2018-09-29T20:11:14.662Z,94.40
2018-09-29T20:13:43.250Z,93.80
2018-09-29T20:16:11.790Z,94.00
2018-09-29T20:18:40.306Z,94.10
2018-09-29T20:21:08.806Z,94.00
2018-09-29T20:23:37.352Z,94.30
2018-09-29T20:26:05.866Z,94.50
2018-09-29T20:28:34.340Z,94.40
2018-09-29T20:31:03.641Z,94.50
2018-09-29T20:33:32.126Z,94.40
2018-09-29T20:36:00.786Z,94.50
2018-09-29T20:38:29.296Z,94.70
2018-09-29T20:40:57.818Z,94.60
2018-09-29T20:43:26.311Z,94.90
2018-09-29T20:45:54.841Z,94.70
2018-09-29T20:48:23.430Z,94.70
2018-09-29T20:50:51.964Z,94.70
2018-09-29T20:53:20.483Z,94.80
2018-09-29T20:55:49.030Z,94.80
2018-09-29T20:58:17.571Z,95.00
2018-09-29T21:00:46.122Z,94.80
2018-09-29T21:03:14.625Z,95.00
2018-09-29T21:05:43.198Z,95.20
2018-09-29T21:08:11.703Z,94.90
2018-09-29T21:10:40.266Z,94.90
2018-09-29T21:13:08.875Z,94.80
2018-09-29T21:15:37.295Z,94.90
2018-09-29T21:18:07.843Z,95.00
2018-09-29T21:20:36.340Z,95.40
2018-09-29T21:23:04.854Z,95.20
2018-09-29T21:25:33.389Z,95.00
2018-09-29T21:28:03.219Z,95.10
2018-09-29T21:30:31.703Z,94.80
2018-09-29T21:33:00.279Z,95.10
2018-09-29T21:35:28.796Z,94.90
2018-09-29T21:37:57.368Z,95.20
2018-09-29T21:40:25.948Z,94.90
2018-09-29T21:42:54.474Z,94.80
2018-09-29T21:45:23.008Z,94.80
2018-09-29T21:47:51.595Z,95.00
2018-09-29T21:50:20.089Z,95.10
2018-09-29T21:52:48.829Z,95.10
2018-09-29T21:55:17.370Z,95.10
2018-09-29T21:57:46.486Z,95.10
2018-09-29T22:00:18.709Z,95.00
2018-09-29T22:02:47.186Z,95.00
2018-09-29T22:05:15.810Z,94.90
2018-09-29T22:07:44.306Z,94.90
2018-09-29T22:10:12.830Z,95.00
2018-09-29T22:12:41.354Z,95.10
2018-09-29T22:15:09.904Z,94.80
2018-09-29T22:17:38.425Z,95.00
2018-09-29T22:20:07.010Z,94.80
2018-09-29T22:22:35.486Z,95.00
2018-09-29T22:25:08.180Z,95.20
2018-09-29T22:27:36.651Z,95.00
2018-09-29T22:30:05.908Z,95.10
2018-09-29T22:32:34.422Z,95.20
2018-09-29T22:35:02.940Z,95.00
2018-09-29T22:37:31.454Z,95.20
2018-09-29T22:39:59.930Z,94.90
2018-09-29T22:42:28.456Z,95.10
2018-09-29T22:44:57.067Z,95.00
2018-09-29T22:47:25.575Z,95.10
2018-09-29T22:49:54.076Z,95.00
2018-09-29T22:52:22.626Z,94.90
2018-09-29T22:54:51.113Z,95.00
2018-09-29T22:57:19.689Z,94.90
2018-09-29T22:59:48.196Z,94.90
2018-09-29T23:02:16.746Z,94.90
2018-09-29T23:04:45.224Z,94.80
2018-09-29T23:07:13.726Z,95.00
2018-09-29T23:09:42.234Z,95.00
2018-09-29T23:12:10.821Z,94.90
2018-09-29T23:14:39.318Z,94.80
2018-09-29T23:17:07.826Z,94.90
2018-09-29T23:19:36.382Z,94.80
2018-09-29T23:22:04.914Z,94.70
2018-09-29T23:24:33.439Z,94.70
2018-09-29T23:27:01.938Z,94.60
2018-09-29T23:29:30.468Z,94.60
2018-09-29T23:31:59.004Z,94.60
2018-09-29T23:34:27.594Z,94.50
2018-09-29T23:36:56.110Z,94.60
2018-09-29T23:39:24.644Z,94.50
2018-09-29T23:41:53.170Z,94.60
2018-09-29T23:44:21.707Z,94.60
2018-09-29T23:46:50.203Z,94.60
2018-09-29T23:49:18.739Z,94.70
2018-09-29T23:51:47.236Z,95.10
2018-09-29T23:54:15.780Z,94.80
2018-09-29T23:56:44.310Z,94.90
2018-09-29T23:59:12.827Z,94.90
